createdAt,value
2019-02-18T00:00:35.079Z,99506.36
2019-02-18T00:01:44.281Z,99500.68
2019-02-18T00:02:52.541Z,99504.23
2019-02-18T00:04:01.395Z,99504.23
2019-02-18T00:05:10.161Z,99506.08
2019-02-18T00:06:18.371Z,99501.73
2019-02-18T00:07:26.586Z,99504.90
2019-02-18T00:08:35.331Z,99501.05
2019-02-18T00:09:44.184Z,99503.30
2019-02-18T00:10:52.565Z,99498.56
2019-02-18T00:12:01.098Z,99502.55
2019-02-18T00:13:09.242Z,99497.28
2019-02-18T00:14:17.498Z,99505.14
2019-02-18T00:15:26.620Z,99509.41
2019-02-18T00:16:34.802Z,99505.46
2019-02-18T00:17:43.264Z,99514.13
2019-02-18T00:18:51.949Z,99512.82
2019-02-18T00:20:00.096Z,99514.98
2019-02-18T00:21:08.586Z,99519.85
2019-02-18T00:22:16.721Z,99521.16
2019-02-18T00:23:24.747Z,99516.44
2019-02-18T00:24:32.819Z,99513.87
2019-02-18T00:25:41.288Z,99511.74
2019-02-18T00:26:49.518Z,99514.05
2019-02-18T00:27:58.081Z,99517.73
2019-02-18T00:29:06.332Z,99516.52
2019-02-18T00:30:15.435Z,99520.98
2019-02-18T00:31:24.165Z,99518.42
2019-02-18T00:32:32.450Z,99515.80
2019-02-18T00:33:41.007Z,99515.83
2019-02-18T00:34:49.482Z,99512.70
2019-02-18T00:35:57.635Z,99521.91
2019-02-18T00:37:06.371Z,99517.04
2019-02-18T00:38:14.442Z,99515.73
2019-02-18T00:39:22.933Z,99517.50
2019-02-18T00:40:31.417Z,99510.01
2019-02-18T00:41:39.765Z,99504.69
2019-02-18T00:42:47.929Z,99510.34
2019-02-18T00:43:56.076Z,99505.44
2019-02-18T00:45:05.404Z,99502.28
2019-02-18T00:46:13.626Z,99504.91
2019-02-18T00:47:22.232Z,99503.99
2019-02-18T00:48:30.613Z,99503.92
2019-02-18T00:49:38.784Z,99500.91
2019-02-18T00:50:47.080Z,99504.78
2019-02-18T00:51:55.336Z,99499.98
2019-02-18T00:53:04.182Z,99502.61
2019-02-18T00:54:12.589Z,99498.27
2019-02-18T00:55:20.843Z,99501.36
2019-02-18T00:56:29.266Z,99500.97
2019-02-18T00:57:37.549Z,99492.80
2019-02-18T00:58:45.946Z,99488.13
2019-02-18T00:59:54.247Z,99496.02
2019-02-18T01:01:02.474Z,99489.09
2019-02-18T01:02:10.731Z,99496.64
2019-02-18T01:03:19.323Z,99490.67
2019-02-18T01:04:27.786Z,99488.61
2019-02-18T01:05:35.992Z,99498.78
2019-02-18T01:06:44.386Z,99500.63
2019-02-18T01:07:52.598Z,99499.80
2019-02-18T01:09:00.913Z,99501.58
2019-02-18T01:10:12.429Z,99499.09
2019-02-18T01:11:20.834Z,99497.37
2019-02-18T01:12:29.569Z,99500.10
2019-02-18T01:13:37.923Z,99498.86
2019-02-18T01:14:46.343Z,99494.59
2019-02-18T01:15:54.882Z,99494.69
2019-02-18T01:17:03.136Z,99495.20
2019-02-18T01:18:11.949Z,99492.28
2019-02-18T01:19:20.166Z,99492.34
2019-02-18T01:20:28.491Z,99491.09
2019-02-18T01:21:36.510Z,99494.70
2019-02-18T01:22:44.850Z,99489.95
2019-02-18T01:23:53.050Z,99486.86
2019-02-18T01:25:01.292Z,99489.48
2019-02-18T01:26:09.796Z,99489.95
2019-02-18T01:27:18.208Z,99481.22
2019-02-18T01:28:26.817Z,99483.84
2019-02-18T01:29:35.047Z,99482.92
2019-02-18T01:30:43.368Z,99479.41
2019-02-18T01:31:51.511Z,99483.78
2019-02-18T01:32:59.766Z,99477.67
2019-02-18T01:34:07.924Z,99476.88
2019-02-18T01:35:16.733Z,99482.13
2019-02-18T01:36:24.903Z,99476.88
2019-02-18T01:37:33.377Z,99478.19
2019-02-18T01:38:41.644Z,99478.19
2019-02-18T01:39:49.962Z,99471.62
2019-02-18T01:40:58.344Z,99473.93
2019-02-18T01:42:06.718Z,99474.78
2019-02-18T01:43:14.734Z,99471.76
2019-02-18T01:44:22.969Z,99473.99
2019-02-18T01:45:31.332Z,99466.15
2019-02-18T01:46:39.563Z,99463.58
2019-02-18T01:47:47.688Z,99464.05
2019-02-18T01:48:55.921Z,99462.80
2019-02-18T01:50:05.467Z,99462.86
2019-02-18T01:51:13.623Z,99468.20
2019-02-18T01:52:21.851Z,99459.14
2019-02-18T01:53:30.539Z,99462.27
2019-02-18T01:54:38.865Z,99461.02
2019-02-18T01:55:46.881Z,99456.28
2019-02-18T01:56:55.557Z,99461.02
2019-02-18T01:58:03.545Z,99457.14
2019-02-18T01:59:12.168Z,99457.99
2019-02-18T02:00:20.336Z,99452.74
2019-02-18T02:01:28.777Z,99457.92
2019-02-18T02:02:36.712Z,99454.84
2019-02-18T02:03:45.069Z,99448.28
2019-02-18T02:04:53.425Z,99454.75
2019-02-18T02:06:01.676Z,99453.44
2019-02-18T02:07:10.096Z,99449.05
2019-02-18T02:08:18.457Z,99456.06
2019-02-18T02:09:26.719Z,99449.50
2019-02-18T02:10:34.859Z,99450.42
2019-02-18T02:11:43.214Z,99447.73
2019-02-18T02:12:51.367Z,99451.66
2019-02-18T02:13:59.629Z,99451.20
2019-02-18T02:15:21.131Z,99450.35
2019-02-18T02:16:29.433Z,99450.81
2019-02-18T02:17:37.680Z,99451.73
2019-02-18T02:18:46.300Z,99450.88
2019-02-18T02:19:54.128Z,99446.97
2019-02-18T02:21:02.783Z,99443.22
2019-02-18T02:22:10.967Z,99441.22
2019-02-18T02:23:19.339Z,99442.59
2019-02-18T02:24:27.437Z,99440.52
2019-02-18T02:25:36.113Z,99443.43
2019-02-18T02:26:44.307Z,99441.48
2019-02-18T02:27:52.455Z,99445.76
2019-02-18T02:29:00.646Z,99446.48
2019-02-18T02:30:11.505Z,99442.06
2019-02-18T02:31:19.728Z,99436.90
2019-02-18T02:32:28.108Z,99440.45
2019-02-18T02:33:36.433Z,99440.77
2019-02-18T02:34:44.824Z,99434.08
2019-02-18T02:35:53.178Z,99435.19
2019-02-18T02:37:01.589Z,99436.61
2019-02-18T02:38:09.848Z,99440.56
2019-02-18T02:39:18.345Z,99433.61
2019-02-18T02:40:26.533Z,99443.16
2019-02-18T02:41:34.960Z,99440.03
2019-02-18T02:42:43.055Z,99436.09
2019-02-18T02:43:51.392Z,99433.48
2019-02-18T02:44:59.835Z,99431.20
2019-02-18T02:46:08.443Z,99437.69
2019-02-18T02:47:16.566Z,99435.50
2019-02-18T02:48:25.022Z,99433.76
2019-02-18T02:49:33.455Z,99434.64
2019-02-18T02:50:41.562Z,99433.76
2019-02-18T02:51:49.952Z,99439.91
2019-02-18T02:52:58.666Z,99439.52
2019-02-18T02:54:06.770Z,99440.37
2019-02-18T02:55:15.487Z,99437.75
2019-02-18T02:56:24.081Z,99432.50
2019-02-18T02:57:33.136Z,99435.52
2019-02-18T02:58:41.668Z,99429.41
2019-02-18T02:59:50.170Z,99433.73
2019-02-18T03:00:58.407Z,99431.11
2019-02-18T03:02:06.756Z,99436.36
2019-02-18T03:03:15.217Z,99432.42
2019-02-18T03:04:23.513Z,99435.90
2019-02-18T03:05:32.045Z,99431.97
2019-02-18T03:06:40.230Z,99431.00
2019-02-18T03:07:48.847Z,99425.36
2019-02-18T03:08:56.926Z,99428.77
2019-02-18T03:10:09.597Z,99425.70
2019-02-18T03:11:18.251Z,99430.48
2019-02-18T03:12:26.987Z,99427.84
2019-02-18T03:13:35.544Z,99426.07
2019-02-18T03:14:44.521Z,99426.53
2019-02-18T03:15:53.779Z,99425.67
2019-02-18T03:17:02.223Z,99425.67
2019-02-18T03:18:10.335Z,99427.86
2019-02-18T03:19:19.015Z,99421.83
2019-02-18T03:20:27.825Z,99421.88
2019-02-18T03:21:35.991Z,99424.11
2019-02-18T03:22:44.252Z,99425.88
2019-02-18T03:23:52.983Z,99425.47
2019-02-18T03:25:19.500Z,99422.85
2019-02-18T03:26:28.490Z,99421.55
2019-02-18T03:27:36.787Z,99421.48
2019-02-18T03:29:13.757Z,99420.23
2019-02-18T03:30:39.017Z,99422.02
2019-02-18T03:31:47.393Z,99416.90
2019-02-18T03:32:55.887Z,99421.74
2019-02-18T03:34:11.950Z,99408.24
2019-02-18T03:35:20.461Z,99413.42
2019-02-18T03:36:28.805Z,99412.58
2019-02-18T03:37:37.085Z,99406.48
2019-02-18T03:38:45.707Z,99414.67
2019-02-18T03:39:54.171Z,99407.73
2019-02-18T03:41:03.648Z,99413.37
2019-02-18T03:42:12.369Z,99407.73
2019-02-18T03:43:20.930Z,99409.38
2019-02-18T03:44:29.074Z,99406.30
2019-02-18T03:45:37.210Z,99406.24
2019-02-18T03:46:45.619Z,99409.75
2019-02-18T03:47:54.189Z,99404.52
2019-02-18T03:49:02.333Z,99406.22
2019-02-18T03:50:10.794Z,99405.39
2019-02-18T03:51:19.450Z,99408.92
2019-02-18T03:52:27.821Z,99408.98
2019-02-18T03:53:36.363Z,99406.48
2019-02-18T03:54:44.953Z,99410.55
2019-02-18T03:55:53.492Z,99408.92
2019-02-18T03:57:02.178Z,99415.08
2019-02-18T03:58:10.328Z,99412.06
2019-02-18T03:59:18.632Z,99406.81
2019-02-18T04:00:26.759Z,99409.44
2019-02-18T04:01:35.245Z,99407.73
2019-02-18T04:02:43.603Z,99408.19
2019-02-18T04:03:52.013Z,99406.42
2019-02-18T04:05:00.403Z,99403.86
2019-02-18T04:06:08.386Z,99405.63
2019-02-18T04:07:16.582Z,99404.77
2019-02-18T04:08:25.103Z,99404.39
2019-02-18T04:09:33.299Z,99400.13
2019-02-18T04:10:41.724Z,99395.39
2019-02-18T04:11:49.774Z,99398.47
2019-02-18T04:12:58.489Z,99397.62
2019-02-18T04:14:06.641Z,99395.88
2019-02-18T04:15:17.585Z,99391.09
2019-02-18T04:16:25.874Z,99394.11
2019-02-18T04:17:34.311Z,99388.02
2019-02-18T04:18:42.819Z,99400.66
2019-02-18T04:19:52.353Z,99396.33
2019-02-18T04:21:01.262Z,99396.84
2019-02-18T04:22:09.426Z,99390.70
2019-02-18T04:23:17.402Z,99394.62
2019-02-18T04:24:25.701Z,99397.64
2019-02-18T04:25:33.992Z,99395.02
2019-02-18T04:26:42.051Z,99400.27
2019-02-18T04:27:50.351Z,99395.42
2019-02-18T04:28:58.614Z,99402.88
2019-02-18T04:30:10.511Z,99395.48
2019-02-18T04:31:19.016Z,99399.80
2019-02-18T04:32:27.601Z,99399.34
2019-02-18T04:33:36.233Z,99403.73
2019-02-18T04:34:44.468Z,99403.28
2019-02-18T04:35:53.404Z,99397.19
2019-02-18T04:37:01.859Z,99401.12
2019-02-18T04:38:10.273Z,99395.88
2019-02-18T04:39:18.938Z,99398.04
2019-02-18T04:40:27.747Z,99404.56
2019-02-18T04:41:35.974Z,99402.80
2019-02-18T04:42:46.244Z,99402.80
2019-02-18T04:43:54.518Z,99398.87
2019-02-18T04:45:03.021Z,99398.87
2019-02-18T04:46:12.114Z,99396.65
2019-02-18T04:47:20.513Z,99396.25
2019-02-18T04:48:29.401Z,99397.16
2019-02-18T04:49:38.774Z,99398.50
2019-02-18T04:50:47.457Z,99399.01
2019-02-18T04:51:56.240Z,99394.68
2019-02-18T04:53:04.359Z,99393.38
2019-02-18T04:54:12.749Z,99398.09
2019-02-18T04:55:21.605Z,99397.70
2019-02-18T04:56:29.867Z,99403.79
2019-02-18T04:57:38.821Z,99398.95
2019-02-18T04:58:47.375Z,99398.09
2019-02-18T04:59:56.525Z,99393.26
2019-02-18T05:01:04.628Z,99393.69
2019-02-18T05:02:12.808Z,99391.07
2019-02-18T05:03:20.896Z,99391.47
2019-02-18T05:04:29.042Z,99393.63
2019-02-18T05:05:37.564Z,99398.41
2019-02-18T05:06:45.716Z,99394.03
2019-02-18T05:07:54.774Z,99398.36
2019-02-18T05:09:05.669Z,99390.56
2019-02-18T05:10:14.169Z,99397.56
2019-02-18T05:11:22.874Z,99391.49
2019-02-18T05:12:31.055Z,99392.91
2019-02-18T05:13:39.510Z,99388.64
2019-02-18T05:14:47.601Z,99391.34
2019-02-18T05:15:56.356Z,99391.00
2019-02-18T05:17:05.117Z,99392.83
2019-02-18T05:18:13.945Z,99389.77
2019-02-18T05:19:23.088Z,99397.23
2019-02-18T05:20:31.526Z,99398.14
2019-02-18T05:21:40.109Z,99398.54
2019-02-18T05:22:48.535Z,99400.76
2019-02-18T05:23:56.928Z,99398.14
2019-02-18T05:25:10.100Z,99400.76
2019-02-18T05:26:18.522Z,99400.76
2019-02-18T05:27:33.275Z,99398.08
2019-02-18T05:28:37.843Z,99395.44
2019-02-18T05:29:46.561Z,99398.80
2019-02-18T05:30:54.739Z,99397.83
2019-02-18T05:32:03.878Z,99402.59
2019-02-18T05:33:12.579Z,99401.57
2019-02-18T05:34:20.952Z,99396.30
2019-02-18T05:35:29.578Z,99397.95
2019-02-18T05:36:38.068Z,99397.95
2019-02-18T05:37:46.363Z,99403.08
2019-02-18T05:38:54.865Z,99400.46
2019-02-18T05:40:03.547Z,99406.95
2019-02-18T05:41:12.162Z,99398.24
2019-02-18T05:42:21.142Z,99404.39
2019-02-18T05:43:29.961Z,99405.30
2019-02-18T05:44:39.704Z,99401.09
2019-02-18T05:45:48.855Z,99402.86
2019-02-18T05:46:57.800Z,99402.88
2019-02-18T05:48:06.675Z,99405.50
2019-02-18T05:49:15.806Z,99405.05
2019-02-18T05:50:25.168Z,99405.95
2019-02-18T05:51:33.290Z,99410.34
2019-02-18T05:52:42.385Z,99412.95
2019-02-18T05:53:51.398Z,99415.13
2019-02-18T05:54:59.881Z,99414.66
2019-02-18T05:56:08.622Z,99417.27
2019-02-18T05:57:18.130Z,99425.46
2019-02-18T05:58:27.780Z,99424.95
2019-02-18T05:59:36.078Z,99432.75
2019-02-18T06:00:44.992Z,99427.91
2019-02-18T06:01:55.236Z,99434.84
2019-02-18T06:03:05.007Z,99430.39
2019-02-18T06:04:13.573Z,99435.55
2019-02-18T06:05:21.667Z,99436.75
2019-02-18T06:06:30.377Z,99433.56
2019-02-18T06:07:38.927Z,99433.42
2019-02-18T06:08:48.350Z,99428.89
2019-02-18T06:09:56.717Z,99433.10
2019-02-18T06:11:07.106Z,99429.55
2019-02-18T06:12:16.163Z,99432.91
2019-02-18T06:13:25.270Z,99438.55
2019-02-18T06:14:33.416Z,99440.62
2019-02-18T06:15:41.776Z,99438.71
2019-02-18T06:16:49.942Z,99441.55
2019-02-18T06:18:00.532Z,99439.24
2019-02-18T06:19:09.467Z,99439.13
2019-02-18T06:20:18.051Z,99435.05
2019-02-18T06:21:27.006Z,99433.16
2019-02-18T06:22:38.451Z,99433.46
2019-02-18T06:23:46.569Z,99435.08
2019-02-18T06:24:55.417Z,99438.83
2019-02-18T06:26:04.025Z,99436.45
2019-02-18T06:27:13.522Z,99437.09
2019-02-18T06:28:21.914Z,99439.90
2019-02-18T06:29:30.456Z,99440.41
2019-02-18T06:30:39.760Z,99435.73
2019-02-18T06:31:48.562Z,99439.38
2019-02-18T06:32:57.271Z,99439.00
2019-02-18T06:34:05.798Z,99442.97
2019-02-18T06:35:14.352Z,99428.14
2019-02-18T06:36:23.906Z,99434.66
2019-02-18T06:37:32.435Z,99435.22
2019-02-18T06:38:41.455Z,99441.55
2019-02-18T06:39:49.922Z,99441.38
2019-02-18T06:40:58.804Z,99442.45
2019-02-18T06:42:07.185Z,99440.44
2019-02-18T06:43:15.987Z,99439.67
2019-02-18T06:44:26.083Z,99444.94
2019-02-18T06:45:52.264Z,99443.27
2019-02-18T06:47:02.204Z,99447.60
2019-02-18T06:48:12.818Z,99442.77
2019-02-18T06:49:21.148Z,99448.55
2019-02-18T06:50:29.731Z,99453.95
2019-02-18T06:51:38.248Z,99452.41
2019-02-18T06:52:47.516Z,99449.75
2019-02-18T06:53:55.836Z,99452.44
2019-02-18T06:55:05.271Z,99450.59
2019-02-18T06:56:13.861Z,99452.64
2019-02-18T06:57:26.257Z,99452.34
2019-02-18T06:58:40.135Z,99453.33
2019-02-18T06:59:50.753Z,99454.72
2019-02-18T07:01:01.396Z,99451.52
2019-02-18T07:02:14.518Z,99452.02
2019-02-18T07:03:23.259Z,99450.63
2019-02-18T07:04:49.194Z,99451.47
2019-02-18T07:06:02.238Z,99452.27
2019-02-18T07:07:15.720Z,99446.09
2019-02-18T07:08:24.328Z,99450.58
2019-02-18T07:09:38.875Z,99447.81
2019-02-18T07:10:48.853Z,99450.67
2019-02-18T07:11:59.518Z,99447.91
2019-02-18T07:13:08.151Z,99444.05
2019-02-18T07:14:17.154Z,99444.92
2019-02-18T07:15:25.649Z,99446.25
2019-02-18T07:16:34.125Z,99447.61
2019-02-18T07:17:42.829Z,99449.23
2019-02-18T07:18:51.883Z,99447.45
2019-02-18T07:20:01.134Z,99445.74
2019-02-18T07:21:10.382Z,99447.91
2019-02-18T07:22:18.966Z,99447.83
2019-02-18T07:23:28.046Z,99444.81
2019-02-18T07:24:36.883Z,99450.17
2019-02-18T07:25:45.993Z,99448.46
2019-02-18T07:26:54.647Z,99452.16
2019-02-18T07:28:03.112Z,99449.69
2019-02-18T07:29:12.540Z,99450.08
2019-02-18T07:30:21.346Z,99449.45
2019-02-18T07:31:30.013Z,99451.41
2019-02-18T07:32:38.649Z,99451.41
2019-02-18T07:33:47.180Z,99451.27
2019-02-18T07:34:55.433Z,99452.81
2019-02-18T07:36:04.065Z,99451.34
2019-02-18T07:37:12.663Z,99451.96
2019-02-18T07:38:21.545Z,99452.19
2019-02-18T07:39:30.281Z,99446.80
2019-02-18T07:40:39.163Z,99447.24
2019-02-18T07:41:48.112Z,99445.52
2019-02-18T07:42:56.514Z,99448.16
2019-02-18T07:44:05.329Z,99442.99
2019-02-18T07:45:13.941Z,99442.91
2019-02-18T07:46:22.887Z,99445.13
2019-02-18T07:47:31.663Z,99447.30
2019-02-18T07:48:40.631Z,99448.81
2019-02-18T07:49:49.531Z,99439.00
2019-02-18T07:50:59.703Z,99443.78
2019-02-18T07:52:08.267Z,99434.04
2019-02-18T07:53:17.367Z,99428.87
2019-02-18T07:54:25.815Z,99423.71
2019-02-18T07:55:34.642Z,99432.64
2019-02-18T07:56:43.348Z,99430.95
2019-02-18T07:57:52.188Z,99425.91
2019-02-18T07:59:01.080Z,99421.42
2019-02-18T08:00:13.924Z,99423.92
2019-02-18T08:01:22.908Z,99418.50
2019-02-18T08:02:31.335Z,99427.41
2019-02-18T08:03:39.868Z,99423.91
2019-02-18T08:04:48.515Z,99419.64
2019-02-18T08:05:56.983Z,99418.94
2019-02-18T08:07:05.357Z,99413.67
2019-02-18T08:08:13.678Z,99419.38
2019-02-18T08:09:22.268Z,99421.30
2019-02-18T08:10:30.619Z,99410.20
2019-02-18T08:11:39.178Z,99410.52
2019-02-18T08:12:47.852Z,99410.41
2019-02-18T08:13:56.074Z,99400.86
2019-02-18T08:15:04.138Z,99393.44
2019-02-18T08:16:12.327Z,99383.47
2019-02-18T08:17:20.299Z,99381.94
2019-02-18T08:18:28.586Z,99385.67
2019-02-18T08:19:36.562Z,99374.36
2019-02-18T08:20:45.565Z,99374.25
2019-02-18T08:21:53.771Z,99379.08
2019-02-18T08:23:02.296Z,99370.05
2019-02-18T08:24:10.913Z,99369.12
2019-02-18T08:25:19.417Z,99368.84
2019-02-18T08:26:27.693Z,99372.08
2019-02-18T08:27:36.094Z,99362.27
2019-02-18T08:28:44.496Z,99369.43
2019-02-18T08:29:52.968Z,99361.77
2019-02-18T08:31:01.326Z,99361.05
2019-02-18T08:32:10.889Z,99358.07
2019-02-18T08:33:19.686Z,99360.14
2019-02-18T08:34:28.116Z,99360.66
2019-02-18T08:35:36.686Z,99361.33
2019-02-18T08:36:45.297Z,99364.91
2019-02-18T08:37:53.790Z,99358.73
2019-02-18T08:39:01.777Z,99363.30
2019-02-18T08:40:20.006Z,99355.99
2019-02-18T08:41:22.239Z,99354.42
2019-02-18T08:42:30.545Z,99360.80
2019-02-18T08:43:38.987Z,99360.95
2019-02-18T08:44:47.061Z,99358.67
2019-02-18T08:45:55.715Z,99364.31
2019-02-18T08:47:04.188Z,99365.41
2019-02-18T08:48:12.414Z,99363.23
2019-02-18T08:49:21.300Z,99365.02
2019-02-18T08:50:29.302Z,99369.91
2019-02-18T08:51:37.700Z,99366.64
2019-02-18T08:52:45.999Z,99368.16
2019-02-18T08:53:54.447Z,99367.13
2019-02-18T08:55:02.629Z,99364.30
2019-02-18T08:56:11.324Z,99367.16
2019-02-18T08:57:19.599Z,99366.89
2019-02-18T08:58:29.520Z,99365.45
2019-02-18T08:59:37.821Z,99361.90
2019-02-18T09:00:46.366Z,99366.94
2019-02-18T09:01:54.683Z,99368.84
2019-02-18T09:03:02.776Z,99366.45
2019-02-18T09:04:10.806Z,99373.29
2019-02-18T09:05:19.263Z,99368.41
2019-02-18T09:06:28.206Z,99361.17
2019-02-18T09:07:40.201Z,99360.17
2019-02-18T09:08:48.729Z,99362.63
2019-02-18T09:09:57.347Z,99362.84
2019-02-18T09:11:06.991Z,99365.44
2019-02-18T09:12:17.076Z,99362.86
2019-02-18T09:13:25.467Z,99364.48
2019-02-18T09:14:33.609Z,99357.19
2019-02-18T09:15:42.534Z,99365.44
2019-02-18T09:16:50.831Z,99358.70
2019-02-18T09:17:58.998Z,99357.02
2019-02-18T09:19:07.907Z,99355.99
2019-02-18T09:20:16.454Z,99358.75
2019-02-18T09:21:25.770Z,99362.50
2019-02-18T09:22:37.148Z,99358.09
2019-02-18T09:23:47.048Z,99362.20
2019-02-18T09:24:56.812Z,99352.09
2019-02-18T09:26:05.178Z,99354.89
2019-02-18T09:27:14.050Z,99349.95
2019-02-18T09:28:22.819Z,99353.41
2019-02-18T09:29:31.723Z,99349.87
2019-02-18T09:30:41.528Z,99353.84
2019-02-18T09:31:50.136Z,99359.12
2019-02-18T09:32:59.097Z,99359.84
2019-02-18T09:34:07.549Z,99361.72
2019-02-18T09:35:16.217Z,99367.16
2019-02-18T09:36:24.865Z,99356.72
2019-02-18T09:37:33.026Z,99355.66
2019-02-18T09:38:41.327Z,99352.59
2019-02-18T09:39:49.614Z,99353.98
2019-02-18T09:40:58.445Z,99350.10
2019-02-18T09:42:06.965Z,99349.78
2019-02-18T09:43:15.267Z,99346.46
2019-02-18T09:44:23.473Z,99345.55
2019-02-18T09:45:31.965Z,99340.97
2019-02-18T09:46:40.505Z,99341.06
2019-02-18T09:47:49.327Z,99342.30
2019-02-18T09:48:57.776Z,99348.66
2019-02-18T09:50:08.831Z,99344.86
2019-02-18T09:51:17.284Z,99345.86
2019-02-18T09:52:25.558Z,99349.40
2019-02-18T09:53:34.184Z,99355.16
2019-02-18T09:54:42.943Z,99351.67
2019-02-18T09:55:51.770Z,99349.86
2019-02-18T09:57:00.013Z,99355.47
2019-02-18T09:58:08.529Z,99344.84
2019-02-18T09:59:17.312Z,99350.63
2019-02-18T10:00:25.790Z,99354.54
2019-02-18T10:01:33.935Z,99353.72
2019-02-18T10:02:42.317Z,99347.20
2019-02-18T10:03:50.545Z,99350.75
2019-02-18T10:04:58.746Z,99350.26
2019-02-18T10:06:07.313Z,99354.89
2019-02-18T10:07:15.826Z,99343.14
2019-02-18T10:08:24.670Z,99354.19
2019-02-18T10:09:33.336Z,99355.38
2019-02-18T10:10:41.496Z,99354.38
2019-02-18T10:11:49.883Z,99348.25
2019-02-18T10:12:59.721Z,99340.43
2019-02-18T10:14:08.460Z,99338.30
2019-02-18T10:15:17.142Z,99336.84
2019-02-18T10:16:25.857Z,99340.75
2019-02-18T10:17:34.123Z,99340.92
2019-02-18T10:18:42.380Z,99336.09
2019-02-18T10:19:50.912Z,99333.69
2019-02-18T10:20:59.728Z,99332.52
2019-02-18T10:22:08.073Z,99333.81
2019-02-18T10:23:16.176Z,99329.48
2019-02-18T10:24:24.689Z,99326.72
2019-02-18T10:25:33.126Z,99328.81
2019-02-18T10:26:41.517Z,99323.22
2019-02-18T10:27:49.904Z,99323.44
2019-02-18T10:28:58.178Z,99320.87
2019-02-18T10:30:09.317Z,99319.78
2019-02-18T10:31:17.662Z,99323.22
2019-02-18T10:32:26.076Z,99323.30
2019-02-18T10:33:34.265Z,99316.05
2019-02-18T10:34:42.617Z,99318.58
2019-02-18T10:35:52.007Z,99315.08
2019-02-18T10:37:00.545Z,99313.11
2019-02-18T10:38:09.055Z,99308.20
2019-02-18T10:39:18.020Z,99304.31
2019-02-18T10:40:26.289Z,99303.73
2019-02-18T10:41:35.177Z,99299.62
2019-02-18T10:42:43.446Z,99306.95
2019-02-18T10:43:51.549Z,99302.91
2019-02-18T10:45:00.396Z,99298.44
2019-02-18T10:46:08.590Z,99305.93
2019-02-18T10:47:16.700Z,99298.88
2019-02-18T10:48:25.212Z,99306.74
2019-02-18T10:49:33.695Z,99303.70
2019-02-18T10:50:42.308Z,99304.02
2019-02-18T10:51:51.077Z,99296.44
2019-02-18T10:52:59.107Z,99300.16
2019-02-18T10:54:07.269Z,99293.27
2019-02-18T10:55:15.883Z,99287.70
2019-02-18T10:56:25.008Z,99288.20
2019-02-18T10:57:33.814Z,99282.42
2019-02-18T10:58:41.877Z,99289.22
2019-02-18T10:59:49.742Z,99286.51
2019-02-18T11:00:58.103Z,99285.25
2019-02-18T11:02:06.267Z,99278.78
2019-02-18T11:03:14.808Z,99278.44
2019-02-18T11:04:23.212Z,99275.73
2019-02-18T11:05:32.092Z,99270.59
2019-02-18T11:06:40.538Z,99270.55
2019-02-18T11:07:48.833Z,99267.92
2019-02-18T11:08:57.073Z,99273.45
2019-02-18T11:10:14.762Z,99260.94
2019-02-18T11:11:23.265Z,99266.11
2019-02-18T11:12:31.613Z,99267.05
2019-02-18T11:13:40.087Z,99259.30
2019-02-18T11:14:48.678Z,99261.48
2019-02-18T11:15:56.843Z,99259.38
2019-02-18T11:17:05.023Z,99257.19
2019-02-18T11:18:13.273Z,99256.03
2019-02-18T11:19:21.830Z,99254.11
2019-02-18T11:20:29.844Z,99251.56
2019-02-18T11:21:37.972Z,99255.25
2019-02-18T11:22:46.029Z,99250.76
2019-02-18T11:23:54.804Z,99251.50
2019-02-18T11:25:02.883Z,99256.22
2019-02-18T11:26:11.124Z,99247.86
2019-02-18T11:27:19.627Z,99246.89
2019-02-18T11:28:28.087Z,99254.44
2019-02-18T11:29:37.075Z,99248.11
2019-02-18T11:30:45.408Z,99246.86
2019-02-18T11:31:54.129Z,99249.50
2019-02-18T11:33:02.641Z,99245.96
2019-02-18T11:34:11.085Z,99245.75
2019-02-18T11:35:19.653Z,99242.68
2019-02-18T11:36:28.023Z,99233.86
2019-02-18T11:37:36.396Z,99233.40
2019-02-18T11:38:44.713Z,99239.25
2019-02-18T11:39:53.267Z,99227.49
2019-02-18T11:41:02.044Z,99235.39
2019-02-18T11:42:10.307Z,99231.92
2019-02-18T11:43:18.460Z,99228.20
2019-02-18T11:44:27.219Z,99229.41
2019-02-18T11:45:35.463Z,99231.92
2019-02-18T11:46:44.341Z,99223.13
2019-02-18T11:47:52.820Z,99217.95
2019-02-18T11:49:01.116Z,99221.92
2019-02-18T11:50:13.054Z,99222.75
2019-02-18T11:51:21.774Z,99218.40
2019-02-18T11:52:30.944Z,99218.91
2019-02-18T11:53:39.538Z,99212.17
2019-02-18T11:54:48.058Z,99219.20
2019-02-18T11:55:57.541Z,99208.73
2019-02-18T11:57:06.234Z,99213.48
2019-02-18T11:58:14.942Z,99211.09
2019-02-18T11:59:24.565Z,99202.30
2019-02-18T12:00:32.667Z,99206.95
2019-02-18T12:01:40.767Z,99205.70
2019-02-18T12:02:49.286Z,99196.33
2019-02-18T12:03:58.244Z,99197.06
2019-02-18T12:05:09.151Z,99199.13
2019-02-18T12:06:17.456Z,99190.06
2019-02-18T12:07:26.117Z,99190.69
2019-02-18T12:08:34.799Z,99183.91
2019-02-18T12:09:43.686Z,99184.25
2019-02-18T12:10:52.201Z,99180.27
2019-02-18T12:12:00.721Z,99180.28
2019-02-18T12:13:09.525Z,99181.60
2019-02-18T12:14:17.595Z,99180.44
2019-02-18T12:15:26.176Z,99176.27
2019-02-18T12:16:34.699Z,99177.66
2019-02-18T12:17:43.302Z,99172.15
2019-02-18T12:18:52.261Z,99171.63
2019-02-18T12:20:00.729Z,99168.55
2019-02-18T12:21:09.225Z,99162.79
2019-02-18T12:22:17.820Z,99168.71
2019-02-18T12:23:26.074Z,99164.00
2019-02-18T12:24:34.476Z,99164.22
2019-02-18T12:25:42.868Z,99160.22
2019-02-18T12:26:51.421Z,99161.79
2019-02-18T12:28:00.262Z,99157.05
2019-02-18T12:29:09.051Z,99157.44
2019-02-18T12:30:19.610Z,99155.49
2019-02-18T12:31:28.438Z,99161.03
2019-02-18T12:32:37.400Z,99159.47
2019-02-18T12:33:45.649Z,99157.13
2019-02-18T12:34:54.067Z,99158.29
2019-02-18T12:36:02.446Z,99153.45
2019-02-18T12:37:11.073Z,99147.80
2019-02-18T12:38:19.826Z,99151.73
2019-02-18T12:39:28.480Z,99149.11
2019-02-18T12:40:36.765Z,99141.83
2019-02-18T12:41:48.691Z,99143.84
2019-02-18T12:42:55.435Z,99142.44
2019-02-18T12:44:03.928Z,99145.80
2019-02-18T12:45:13.874Z,99135.62
2019-02-18T12:46:22.303Z,99138.42
2019-02-18T12:47:30.606Z,99132.66
2019-02-18T12:48:39.257Z,99133.60
2019-02-18T12:49:47.661Z,99133.70
2019-02-18T12:50:56.020Z,99127.02
2019-02-18T12:52:04.522Z,99126.86
2019-02-18T12:53:12.972Z,99125.05
2019-02-18T12:54:21.973Z,99124.00
2019-02-18T12:55:30.452Z,99125.05
2019-02-18T12:56:38.912Z,99125.98
2019-02-18T12:57:47.484Z,99120.62
2019-02-18T12:58:57.024Z,99123.08
2019-02-18T13:00:10.056Z,99128.53
2019-02-18T13:01:18.536Z,99129.16
2019-02-18T13:02:26.956Z,99120.26
2019-02-18T13:03:35.366Z,99122.98
2019-02-18T13:04:43.792Z,99114.33
2019-02-18T13:05:52.341Z,99112.52
2019-02-18T13:07:00.287Z,99117.41
2019-02-18T13:08:08.846Z,99116.84
2019-02-18T13:09:17.047Z,99112.88
2019-02-18T13:10:34.678Z,99114.33
2019-02-18T13:11:35.799Z,99116.67
2019-02-18T13:12:43.973Z,99109.41
2019-02-18T13:13:52.615Z,99106.39
2019-02-18T13:15:01.139Z,99115.58
2019-02-18T13:16:09.356Z,99115.56
2019-02-18T13:17:17.986Z,99109.61
2019-02-18T13:18:26.526Z,99106.03
2019-02-18T13:19:35.038Z,99107.35
2019-02-18T13:20:43.379Z,99109.82
2019-02-18T13:21:52.216Z,99105.06
2019-02-18T13:23:01.206Z,99103.63
2019-02-18T13:24:10.098Z,99103.32
2019-02-18T13:25:18.590Z,99109.42
2019-02-18T13:26:34.025Z,99104.20
2019-02-18T13:27:42.225Z,99103.84
2019-02-18T13:28:50.973Z,99101.97